Mount Vernon, AL (36560)

3:36 AM CST on December 25, 2014 (GMT -0600)
APRSWXNET Calvert AL US | Change Station
CLOSE
Current Station
Personal Weather Station
Location: Calvert, AL
Elevation: 49 ft
Nearby Weather Stations

Elev 49 ft 31.15 °N, 87.98 °W | Updated 36 minutes ago

Clear
Clear
41 °F
Feels Like 38 °F
N
5
Wind Variable Wind from West
Gusts 10.0 mph

Today
High -- | Low -- °F
--% Chance of Precip.
Yesterday
High -- | Low -- °F
Precip. -- in
6:48 AM 4:56 PM
Waxing Crescent, 15% visible
Pressure 30.16 in
Visibility 10.0 miles
Clouds Clear
Windchill 38 °F
Dew Point 37 °F
Humidity 85%
Rainfall 0.09 in
Snow Depth Not available.
UV 0 out of 12
Pollen .50 out of 12
Air Quality Not available.
Flu Activity Not available.
METAR KMOB 250856Z AUTO 26004KT 10SM CLR 03/02 A3016 RMK AO2 SLP212 T00280017 53018

More Conditions Fewer Conditions

Pressure 30.16 in
Visibility 10.0 miles
Clouds Clear
Windchill 38 °F
Dew Point 37 °F
Humidity 85%
Rainfall 0.09 in
Snow Depth Not available.
UV 0 out of 12
Pollen .50 out of 12
Air Quality Not available.
Flu Activity Not available.
METAR KMOB 250856Z AUTO 26004KT 10SM CLR 03/02 A3016 RMK AO2 SLP212 T00280017 53018

More Conditions Fewer Conditions

10-Day Weather Forecast

Almanac

Astronomy

Dec. 25, 2014 Rise Set
Actual Time
Civil Twilight
Nautical Twilight
Astronomical Twilight
Moon
Length of Visible Light
Length of Day
Tomorrow will be .
, % of the Moon is Illuminated

Today's Extremes

State Highs State Lows

Community

WunderPhotos

Upload Photos

1,780,251 photos uploaded!

WunderBlogs® & News

Nearby

Air Quality

  Air Quality AQ Index Pollutant
Not available.

Snow Depth

Station Depth Elevation

Earthquake Activity

City Distance Mag. Time & Date
Minimum magnitude displayed is 2.5.

Coastal Water Temperatures

Place Temperature

Nearby Weather Stations